sensor_id;sensor_type;location;lat;lon;timestamp;P1;durP1;ratioP1;P2;durP2;ratioP2
11313;SDS011;5712;48.858;9.206;2024-01-07T00:00:26;21.03;;;11.00;;
11313;SDS011;5712;48.858;9.206;2024-01-07T00:02:53;16.97;;;9.90;;
11313;SDS011;5712;48.858;9.206;2024-01-07T00:05:19;20.87;;;10.63;;
11313;SDS011;5712;48.858;9.206;2024-01-07T00:07:46;19.80;;;11.13;;
11313;SDS011;5712;48.858;9.206;2024-01-07T00:10:13;19.07;;;11.50;;
11313;SDS011;5712;48.858;9.206;2024-01-07T00:12:40;18.07;;;9.77;;
11313;SDS011;5712;48.858;9.206;2024-01-07T00:15:06;18.17;;;10.20;;
11313;SDS011;5712;48.858;9.206;2024-01-07T00:17:34;18.27;;;10.57;;
11313;SDS011;5712;48.858;9.206;2024-01-07T00:20:01;17.87;;;10.77;;
11313;SDS011;5712;48.858;9.206;2024-01-07T00:22:28;19.57;;;10.87;;
11313;SDS011;5712;48.858;9.206;2024-01-07T00:24:54;16.80;;;9.40;;
11313;SDS011;5712;48.858;9.206;2024-01-07T00:27:21;18.77;;;10.53;;
11313;SDS011;5712;48.858;9.206;2024-01-07T00:29:47;21.00;;;10.50;;
11313;SDS011;5712;48.858;9.206;2024-01-07T00:32:14;19.20;;;10.37;;
11313;SDS011;5712;48.858;9.206;2024-01-07T00:34:41;19.83;;;11.20;;
11313;SDS011;5712;48.858;9.206;2024-01-07T00:37:08;17.67;;;9.87;;
11313;SDS011;5712;48.858;9.206;2024-01-07T00:39:34;19.30;;;10.53;;
11313;SDS011;5712;48.858;9.206;2024-01-07T00:42:01;16.87;;;9.50;;
11313;SDS011;5712;48.858;9.206;2024-01-07T00:44:27;18.57;;;10.03;;
11313;SDS011;5712;48.858;9.206;2024-01-07T00:46:54;18.70;;;10.90;;
11313;SDS011;5712;48.858;9.206;2024-01-07T00:49:20;18.73;;;10.40;;
11313;SDS011;5712;48.858;9.206;2024-01-07T00:51:48;22.07;;;10.13;;
11313;SDS011;5712;48.858;9.206;2024-01-07T00:54:15;17.53;;;9.97;;
11313;SDS011;5712;48.858;9.206;2024-01-07T00:56:41;18.53;;;9.70;;
11313;SDS011;5712;48.858;9.206;2024-01-07T00:59:07;16.97;;;9.90;;
11313;SDS011;5712;48.858;9.206;2024-01-07T01:01:34;17.43;;;10.10;;
11313;SDS011;5712;48.858;9.206;2024-01-07T01:04:00;17.43;;;10.03;;
11313;SDS011;5712;48.858;9.206;2024-01-07T01:06:27;16.87;;;9.77;;
11313;SDS011;5712;48.858;9.206;2024-01-07T01:08:55;18.30;;;10.67;;
11313;SDS011;5712;48.858;9.206;2024-01-07T01:11:21;20.43;;;10.83;;
11313;SDS011;5712;48.858;9.206;2024-01-07T01:13:48;16.97;;;9.40;;
11313;SDS011;5712;48.858;9.206;2024-01-07T01:16:14;18.37;;;10.10;;
11313;SDS011;5712;48.858;9.206;2024-01-07T01:18:41;15.53;;;9.63;;
11313;SDS011;5712;48.858;9.206;2024-01-07T01:21:07;17.07;;;10.00;;
11313;SDS011;5712;48.858;9.206;2024-01-07T01:23:34;18.33;;;10.23;;
11313;SDS011;5712;48.858;9.206;2024-01-07T01:26:01;15.67;;;10.10;;
11313;SDS011;5712;48.858;9.206;2024-01-07T01:28:28;16.73;;;9.63;;
11313;SDS011;5712;48.858;9.206;2024-01-07T01:30:55;20.77;;;10.33;;
11313;SDS011;5712;48.858;9.206;2024-01-07T01:33:21;18.20;;;10.40;;
11313;SDS011;5712;48.858;9.206;2024-01-07T01:35:48;18.87;;;10.87;;
11313;SDS011;5712;48.858;9.206;2024-01-07T01:38:14;20.63;;;10.80;;
11313;SDS011;5712;48.858;9.206;2024-01-07T01:40:41;19.67;;;10.67;;
11313;SDS011;5712;48.858;9.206;2024-01-07T01:43:08;18.73;;;10.07;;
11313;SDS011;5712;48.858;9.206;2024-01-07T01:45:35;20.93;;;10.80;;
11313;SDS011;5712;48.858;9.206;2024-01-07T01:48:01;19.63;;;10.07;;
11313;SDS011;5712;48.858;9.206;2024-01-07T01:50:28;21.80;;;11.53;;
11313;SDS011;5712;48.858;9.206;2024-01-07T01:52:55;29.67;;;12.33;;
11313;SDS011;5712;48.858;9.206;2024-01-07T01:55:22;21.93;;;11.40;;
11313;SDS011;5712;48.858;9.206;2024-01-07T01:57:49;18.70;;;11.67;;
11313;SDS011;5712;48.858;9.206;2024-01-07T02:00:19;19.93;;;11.00;;
11313;SDS011;5712;48.858;9.206;2024-01-07T02:02:46;22.67;;;11.27;;
11313;SDS011;5712;48.858;9.206;2024-01-07T02:05:12;19.93;;;11.37;;
11313;SDS011;5712;48.858;9.206;2024-01-07T02:07:39;24.07;;;11.80;;
11313;SDS011;5712;48.858;9.206;2024-01-07T02:10:06;21.60;;;11.83;;
11313;SDS011;5712;48.858;9.206;2024-01-07T02:12:33;22.87;;;12.10;;
11313;SDS011;5712;48.858;9.206;2024-01-07T02:14:59;19.30;;;11.30;;
11313;SDS011;5712;48.858;9.206;2024-01-07T02:17:27;22.53;;;12.83;;
11313;SDS011;5712;48.858;9.206;2024-01-07T02:19:54;20.50;;;12.50;;
11313;SDS011;5712;48.858;9.206;2024-01-07T02:22:20;22.73;;;12.70;;
11313;SDS011;5712;48.858;9.206;2024-01-07T02:24:48;24.00;;;12.70;;
11313;SDS011;5712;48.858;9.206;2024-01-07T02:27:14;26.13;;;12.63;;
11313;SDS011;5712;48.858;9.206;2024-01-07T02:29:41;23.83;;;12.80;;
11313;SDS011;5712;48.858;9.206;2024-01-07T02:32:07;23.03;;;12.27;;
11313;SDS011;5712;48.858;9.206;2024-01-07T02:34:34;22.93;;;12.67;;
11313;SDS011;5712;48.858;9.206;2024-01-07T02:37:00;23.40;;;12.53;;
11313;SDS011;5712;48.858;9.206;2024-01-07T02:39:27;21.63;;;11.40;;
11313;SDS011;5712;48.858;9.206;2024-01-07T02:41:54;25.77;;;13.27;;
11313;SDS011;5712;48.858;9.206;2024-01-07T02:44:21;23.00;;;12.87;;
11313;SDS011;5712;48.858;9.206;2024-01-07T02:46:47;23.20;;;12.40;;
11313;SDS011;5712;48.858;9.206;2024-01-07T02:49:14;25.37;;;14.03;;
11313;SDS011;5712;48.858;9.206;2024-01-07T02:51:40;24.33;;;13.33;;
11313;SDS011;5712;48.858;9.206;2024-01-07T02:54:08;20.90;;;12.57;;
11313;SDS011;5712;48.858;9.206;2024-01-07T02:56:34;21.57;;;12.80;;
11313;SDS011;5712;48.858;9.206;2024-01-07T02:59:02;22.00;;;12.30;;
11313;SDS011;5712;48.858;9.206;2024-01-07T03:01:28;21.17;;;12.20;;
11313;SDS011;5712;48.858;9.206;2024-01-07T03:03:55;24.10;;;12.63;;
11313;SDS011;5712;48.858;9.206;2024-01-07T03:06:21;21.10;;;12.37;;
11313;SDS011;5712;48.858;9.206;2024-01-07T03:08:48;18.87;;;12.00;;
11313;SDS011;5712;48.858;9.206;2024-01-07T03:11:14;23.60;;;12.03;;
11313;SDS011;5712;48.858;9.206;2024-01-07T03:13:41;24.17;;;13.13;;
11313;SDS011;5712;48.858;9.206;2024-01-07T03:16:09;22.20;;;11.53;;
11313;SDS011;5712;48.858;9.206;2024-01-07T03:18:45;24.07;;;12.97;;
11313;SDS011;5712;48.858;9.206;2024-01-07T03:21:16;20.30;;;11.90;;
11313;SDS011;5712;48.858;9.206;2024-01-07T03:23:43;24.40;;;13.10;;
11313;SDS011;5712;48.858;9.206;2024-01-07T03:26:10;20.67;;;12.03;;
11313;SDS011;5712;48.858;9.206;2024-01-07T03:28:36;21.83;;;12.33;;
11313;SDS011;5712;48.858;9.206;2024-01-07T03:31:03;19.70;;;10.93;;
11313;SDS011;5712;48.858;9.206;2024-01-07T03:33:34;18.63;;;11.50;;
11313;SDS011;5712;48.858;9.206;2024-01-07T03:36:00;20.33;;;11.87;;
11313;SDS011;5712;48.858;9.206;2024-01-07T03:38:32;21.03;;;11.10;;
11313;SDS011;5712;48.858;9.206;2024-01-07T03:40:58;23.63;;;12.57;;
11313;SDS011;5712;48.858;9.206;2024-01-07T03:43:24;20.87;;;11.87;;
11313;SDS011;5712;48.858;9.206;2024-01-07T03:45:51;20.47;;;12.43;;
11313;SDS011;5712;48.858;9.206;2024-01-07T03:48:17;20.33;;;11.70;;
11313;SDS011;5712;48.858;9.206;2024-01-07T03:50:46;20.70;;;11.53;;
11313;SDS011;5712;48.858;9.206;2024-01-07T03:53:12;21.43;;;11.77;;
11313;SDS011;5712;48.858;9.206;2024-01-07T03:55:39;20.93;;;12.13;;
11313;SDS011;5712;48.858;9.206;2024-01-07T03:58:05;19.80;;;11.63;;
11313;SDS011;5712;48.858;9.206;2024-01-07T04:00:32;22.73;;;11.43;;
11313;SDS011;5712;48.858;9.206;2024-01-07T04:02:58;20.73;;;12.50;;
11313;SDS011;5712;48.858;9.206;2024-01-07T04:05:25;21.97;;;10.93;;
11313;SDS011;5712;48.858;9.206;2024-01-07T04:07:53;23.60;;;12.40;;
11313;SDS011;5712;48.858;9.206;2024-01-07T04:10:19;23.07;;;12.73;;
11313;SDS011;5712;48.858;9.206;2024-01-07T04:12:46;20.43;;;10.90;;
11313;SDS011;5712;48.858;9.206;2024-01-07T04:15:13;20.33;;;11.50;;
11313;SDS011;5712;48.858;9.206;2024-01-07T04:17:39;20.70;;;12.23;;
11313;SDS011;5712;48.858;9.206;2024-01-07T04:20:06;18.87;;;10.63;;
11313;SDS011;5712;48.858;9.206;2024-01-07T04:22:34;18.03;;;11.00;;
11313;SDS011;5712;48.858;9.206;2024-01-07T04:25:02;22.27;;;11.27;;
11313;SDS011;5712;48.858;9.206;2024-01-07T04:27:30;23.17;;;10.60;;
11313;SDS011;5712;48.858;9.206;2024-01-07T04:29:56;18.00;;;9.97;;
11313;SDS011;5712;48.858;9.206;2024-01-07T04:32:23;20.13;;;10.47;;
11313;SDS011;5712;48.858;9.206;2024-01-07T04:34:49;17.63;;;9.47;;
11313;SDS011;5712;48.858;9.206;2024-01-07T04:37:16;17.93;;;10.13;;
11313;SDS011;5712;48.858;9.206;2024-01-07T04:39:42;17.10;;;9.40;;
11313;SDS011;5712;48.858;9.206;2024-01-07T04:42:10;16.90;;;9.70;;
11313;SDS011;5712;48.858;9.206;2024-01-07T04:44:37;18.10;;;9.67;;
11313;SDS011;5712;48.858;9.206;2024-01-07T04:47:03;17.67;;;9.60;;
11313;SDS011;5712;48.858;9.206;2024-01-07T04:49:30;17.63;;;8.90;;
11313;SDS011;5712;48.858;9.206;2024-01-07T04:51:56;17.60;;;8.63;;
11313;SDS011;5712;48.858;9.206;2024-01-07T04:54:23;19.00;;;9.70;;
11313;SDS011;5712;48.858;9.206;2024-01-07T04:56:49;14.73;;;8.57;;
11313;SDS011;5712;48.858;9.206;2024-01-07T04:59:17;14.17;;;7.83;;
11313;SDS011;5712;48.858;9.206;2024-01-07T05:01:44;17.50;;;8.53;;
11313;SDS011;5712;48.858;9.206;2024-01-07T05:04:10;20.20;;;9.00;;
11313;SDS011;5712;48.858;9.206;2024-01-07T05:06:36;17.37;;;8.77;;
11313;SDS011;5712;48.858;9.206;2024-01-07T05:09:03;16.70;;;9.47;;
11313;SDS011;5712;48.858;9.206;2024-01-07T05:11:29;18.60;;;8.97;;
11313;SDS011;5712;48.858;9.206;2024-01-07T05:13:56;17.70;;;9.53;;
11313;SDS011;5712;48.858;9.206;2024-01-07T05:16:24;15.73;;;8.33;;
11313;SDS011;5712;48.858;9.206;2024-01-07T05:18:50;15.50;;;8.07;;
11313;SDS011;5712;48.858;9.206;2024-01-07T05:21:18;18.43;;;8.77;;
11313;SDS011;5712;48.858;9.206;2024-01-07T05:23:44;16.83;;;8.77;;
11313;SDS011;5712;48.858;9.206;2024-01-07T05:26:11;12.97;;;7.70;;
11313;SDS011;5712;48.858;9.206;2024-01-07T05:28:37;16.50;;;8.50;;
11313;SDS011;5712;48.858;9.206;2024-01-07T05:31:04;17.10;;;8.83;;
11313;SDS011;5712;48.858;9.206;2024-01-07T05:33:32;15.10;;;8.53;;
11313;SDS011;5712;48.858;9.206;2024-01-07T05:35:58;16.07;;;8.40;;
11313;SDS011;5712;48.858;9.206;2024-01-07T05:38:25;15.87;;;8.80;;
11313;SDS011;5712;48.858;9.206;2024-01-07T05:40:51;17.60;;;8.17;;
11313;SDS011;5712;48.858;9.206;2024-01-07T05:43:18;17.57;;;9.30;;
11313;SDS011;5712;48.858;9.206;2024-01-07T05:45:44;16.57;;;9.10;;
11313;SDS011;5712;48.858;9.206;2024-01-07T05:48:11;15.47;;;8.40;;
11313;SDS011;5712;48.858;9.206;2024-01-07T05:50:38;14.87;;;8.23;;
11313;SDS011;5712;48.858;9.206;2024-01-07T05:53:05;14.37;;;8.10;;
11313;SDS011;5712;48.858;9.206;2024-01-07T05:55:31;15.17;;;7.53;;
11313;SDS011;5712;48.858;9.206;2024-01-07T05:57:58;15.77;;;8.07;;
11313;SDS011;5712;48.858;9.206;2024-01-07T06:00:24;15.97;;;8.07;;
11313;SDS011;5712;48.858;9.206;2024-01-07T06:02:51;14.10;;;7.97;;
11313;SDS011;5712;48.858;9.206;2024-01-07T06:05:17;16.87;;;8.70;;
11313;SDS011;5712;48.858;9.206;2024-01-07T06:07:45;12.60;;;7.60;;
11313;SDS011;5712;48.858;9.206;2024-01-07T06:10:12;16.63;;;8.37;;
11313;SDS011;5712;48.858;9.206;2024-01-07T06:12:38;16.60;;;8.37;;
11313;SDS011;5712;48.858;9.206;2024-01-07T06:15:05;13.83;;;7.90;;
11313;SDS011;5712;48.858;9.206;2024-01-07T06:17:32;13.60;;;7.77;;
11313;SDS011;5712;48.858;9.206;2024-01-07T06:19:59;15.40;;;8.40;;
11313;SDS011;5712;48.858;9.206;2024-01-07T06:22:25;14.37;;;8.37;;
11313;SDS011;5712;48.858;9.206;2024-01-07T06:24:53;13.83;;;8.37;;
11313;SDS011;5712;48.858;9.206;2024-01-07T06:27:19;14.60;;;8.70;;
11313;SDS011;5712;48.858;9.206;2024-01-07T06:29:46;13.73;;;8.00;;
11313;SDS011;5712;48.858;9.206;2024-01-07T06:32:13;12.93;;;7.90;;
11313;SDS011;5712;48.858;9.206;2024-01-07T06:34:39;14.03;;;8.77;;
11313;SDS011;5712;48.858;9.206;2024-01-07T06:37:06;12.77;;;7.67;;
11313;SDS011;5712;48.858;9.206;2024-01-07T06:39:35;11.60;;;7.87;;
11313;SDS011;5712;48.858;9.206;2024-01-07T06:42:04;11.83;;;7.73;;
11313;SDS011;5712;48.858;9.206;2024-01-07T06:44:31;13.57;;;8.30;;
11313;SDS011;5712;48.858;9.206;2024-01-07T06:46:57;11.20;;;7.53;;
11313;SDS011;5712;48.858;9.206;2024-01-07T06:49:24;12.67;;;7.90;;
11313;SDS011;5712;48.858;9.206;2024-01-07T06:51:50;10.53;;;7.30;;
11313;SDS011;5712;48.858;9.206;2024-01-07T06:54:17;10.30;;;6.93;;
11313;SDS011;5712;48.858;9.206;2024-01-07T06:56:43;9.00;;;6.50;;
11313;SDS011;5712;48.858;9.206;2024-01-07T06:59:11;9.53;;;6.27;;
11313;SDS011;5712;48.858;9.206;2024-01-07T07:01:38;10.87;;;6.23;;
11313;SDS011;5712;48.858;9.206;2024-01-07T07:04:04;8.87;;;6.27;;
11313;SDS011;5712;48.858;9.206;2024-01-07T07:06:31;9.00;;;5.83;;
11313;SDS011;5712;48.858;9.206;2024-01-07T07:08:57;9.40;;;5.73;;
11313;SDS011;5712;48.858;9.206;2024-01-07T07:11:24;8.10;;;6.00;;
11313;SDS011;5712;48.858;9.206;2024-01-07T07:13:50;10.87;;;6.00;;
11313;SDS011;5712;48.858;9.206;2024-01-07T07:16:18;6.27;;;4.73;;
11313;SDS011;5712;48.858;9.206;2024-01-07T07:18:44;9.17;;;5.10;;
11313;SDS011;5712;48.858;9.206;2024-01-07T07:21:11;8.60;;;5.60;;
11313;SDS011;5712;48.858;9.206;2024-01-07T07:23:37;7.03;;;5.03;;
11313;SDS011;5712;48.858;9.206;2024-01-07T07:26:04;8.57;;;5.40;;
11313;SDS011;5712;48.858;9.206;2024-01-07T07:28:31;7.53;;;4.37;;
11313;SDS011;5712;48.858;9.206;2024-01-07T07:30:58;8.37;;;5.00;;
11313;SDS011;5712;48.858;9.206;2024-01-07T07:33:26;8.00;;;5.27;;
11313;SDS011;5712;48.858;9.206;2024-01-07T07:35:52;8.33;;;4.73;;
11313;SDS011;5712;48.858;9.206;2024-01-07T07:38:19;8.90;;;4.90;;
11313;SDS011;5712;48.858;9.206;2024-01-07T07:40:45;6.63;;;4.53;;
11313;SDS011;5712;48.858;9.206;2024-01-07T07:43:17;6.83;;;4.63;;
11313;SDS011;5712;48.858;9.206;2024-01-07T07:45:44;6.30;;;4.33;;
11313;SDS011;5712;48.858;9.206;2024-01-07T07:48:10;7.07;;;4.23;;
11313;SDS011;5712;48.858;9.206;2024-01-07T07:50:38;6.60;;;4.60;;
11313;SDS011;5712;48.858;9.206;2024-01-07T07:53:05;6.80;;;4.73;;
11313;SDS011;5712;48.858;9.206;2024-01-07T07:55:32;7.00;;;4.73;;
11313;SDS011;5712;48.858;9.206;2024-01-07T07:57:58;7.10;;;5.23;;
11313;SDS011;5712;48.858;9.206;2024-01-07T08:00:25;7.80;;;4.57;;
11313;SDS011;5712;48.858;9.206;2024-01-07T08:02:51;7.63;;;4.40;;
11313;SDS011;5712;48.858;9.206;2024-01-07T08:05:18;7.40;;;4.40;;
11313;SDS011;5712;48.858;9.206;2024-01-07T08:07:45;6.60;;;4.70;;
11313;SDS011;5712;48.858;9.206;2024-01-07T08:10:12;6.90;;;4.17;;
11313;SDS011;5712;48.858;9.206;2024-01-07T08:12:38;6.33;;;4.27;;
11313;SDS011;5712;48.858;9.206;2024-01-07T08:15:05;6.33;;;4.20;;
11313;SDS011;5712;48.858;9.206;2024-01-07T08:17:33;6.00;;;4.17;;
11313;SDS011;5712;48.858;9.206;2024-01-07T08:20:00;5.97;;;4.20;;
11313;SDS011;5712;48.858;9.206;2024-01-07T08:22:28;5.97;;;4.17;;
11313;SDS011;5712;48.858;9.206;2024-01-07T08:24:56;7.33;;;4.37;;
11313;SDS011;5712;48.858;9.206;2024-01-07T08:27:23;6.53;;;4.70;;
11313;SDS011;5712;48.858;9.206;2024-01-07T08:29:49;6.73;;;4.73;;
11313;SDS011;5712;48.858;9.206;2024-01-07T08:32:16;7.57;;;4.90;;
11313;SDS011;5712;48.858;9.206;2024-01-07T08:34:42;8.93;;;4.80;;
11313;SDS011;5712;48.858;9.206;2024-01-07T08:37:09;8.37;;;4.50;;
11313;SDS011;5712;48.858;9.206;2024-01-07T08:39:35;8.97;;;5.30;;
11313;SDS011;5712;48.858;9.206;2024-01-07T08:42:03;7.60;;;4.50;;
11313;SDS011;5712;48.858;9.206;2024-01-07T08:44:31;5.80;;;4.27;;
11313;SDS011;5712;48.858;9.206;2024-01-07T08:46:57;8.00;;;3.57;;
11313;SDS011;5712;48.858;9.206;2024-01-07T08:49:25;4.77;;;3.70;;
11313;SDS011;5712;48.858;9.206;2024-01-07T08:51:51;5.50;;;3.40;;
11313;SDS011;5712;48.858;9.206;2024-01-07T08:54:18;5.53;;;3.50;;
11313;SDS011;5712;48.858;9.206;2024-01-07T08:56:44;5.27;;;3.13;;
11313;SDS011;5712;48.858;9.206;2024-01-07T08:59:12;5.53;;;3.20;;
11313;SDS011;5712;48.858;9.206;2024-01-07T09:01:39;3.97;;;3.00;;
11313;SDS011;5712;48.858;9.206;2024-01-07T09:04:05;3.93;;;2.67;;
11313;SDS011;5712;48.858;9.206;2024-01-07T09:06:32;5.13;;;2.80;;
11313;SDS011;5712;48.858;9.206;2024-01-07T09:08:58;5.70;;;2.93;;
11313;SDS011;5712;48.858;9.206;2024-01-07T09:11:25;4.03;;;2.63;;
11313;SDS011;5712;48.858;9.206;2024-01-07T09:13:51;4.90;;;3.40;;
11313;SDS011;5712;48.858;9.206;2024-01-07T09:16:19;6.47;;;3.20;;
11313;SDS011;5712;48.858;9.206;2024-01-07T09:18:45;5.07;;;3.53;;
11313;SDS011;5712;48.858;9.206;2024-01-07T09:21:12;3.97;;;3.07;;
11313;SDS011;5712;48.858;9.206;2024-01-07T09:23:39;3.60;;;3.10;;
11313;SDS011;5712;48.858;9.206;2024-01-07T09:26:06;5.90;;;3.47;;
11313;SDS011;5712;48.858;9.206;2024-01-07T09:28:33;4.30;;;3.37;;
11313;SDS011;5712;48.858;9.206;2024-01-07T09:30:59;3.47;;;2.93;;
11313;SDS011;5712;48.858;9.206;2024-01-07T09:33:27;5.77;;;3.07;;
11313;SDS011;5712;48.858;9.206;2024-01-07T09:35:57;5.23;;;3.13;;
11313;SDS011;5712;48.858;9.206;2024-01-07T09:38:23;4.37;;;3.27;;
11313;SDS011;5712;48.858;9.206;2024-01-07T09:40:51;5.43;;;3.67;;
11313;SDS011;5712;48.858;9.206;2024-01-07T09:43:18;5.07;;;3.57;;
11313;SDS011;5712;48.858;9.206;2024-01-07T09:45:46;5.57;;;3.80;;
11313;SDS011;5712;48.858;9.206;2024-01-07T09:48:13;5.67;;;3.77;;
11313;SDS011;5712;48.858;9.206;2024-01-07T09:50:41;6.43;;;3.60;;
11313;SDS011;5712;48.858;9.206;2024-01-07T09:53:07;7.23;;;3.77;;
11313;SDS011;5712;48.858;9.206;2024-01-07T09:55:45;4.93;;;3.53;;
11313;SDS011;5712;48.858;9.206;2024-01-07T09:58:18;5.23;;;3.53;;
11313;SDS011;5712;48.858;9.206;2024-01-07T10:00:44;6.30;;;3.80;;
11313;SDS011;5712;48.858;9.206;2024-01-07T10:03:11;6.53;;;4.13;;
11313;SDS011;5712;48.858;9.206;2024-01-07T10:05:38;4.60;;;3.63;;
11313;SDS011;5712;48.858;9.206;2024-01-07T10:08:06;5.77;;;4.00;;
11313;SDS011;5712;48.858;9.206;2024-01-07T10:10:34;5.93;;;3.93;;
11313;SDS011;5712;48.858;9.206;2024-01-07T10:13:02;5.70;;;3.83;;
11313;SDS011;5712;48.858;9.206;2024-01-07T10:15:28;4.90;;;3.40;;
11313;SDS011;5712;48.858;9.206;2024-01-07T10:17:55;5.90;;;3.77;;
11313;SDS011;5712;48.858;9.206;2024-01-07T10:20:22;4.17;;;3.30;;
11313;SDS011;5712;48.858;9.206;2024-01-07T10:22:50;3.83;;;2.93;;
11313;SDS011;5712;48.858;9.206;2024-01-07T10:25:18;5.23;;;3.50;;
11313;SDS011;5712;48.858;9.206;2024-01-07T10:27:45;4.87;;;3.57;;
11313;SDS011;5712;48.858;9.206;2024-01-07T10:30:12;6.40;;;4.00;;
11313;SDS011;5712;48.858;9.206;2024-01-07T10:32:39;5.07;;;3.67;;
11313;SDS011;5712;48.858;9.206;2024-01-07T10:35:08;8.27;;;4.17;;
11313;SDS011;5712;48.858;9.206;2024-01-07T10:37:39;6.40;;;3.90;;
11313;SDS011;5712;48.858;9.206;2024-01-07T10:40:06;5.53;;;3.57;;
11313;SDS011;5712;48.858;9.206;2024-01-07T10:42:35;5.00;;;3.67;;
11313;SDS011;5712;48.858;9.206;2024-01-07T10:45:04;5.70;;;3.63;;
11313;SDS011;5712;48.858;9.206;2024-01-07T10:47:31;4.47;;;3.77;;
11313;SDS011;5712;48.858;9.206;2024-01-07T10:50:00;6.03;;;4.03;;
11313;SDS011;5712;48.858;9.206;2024-01-07T10:52:29;6.00;;;3.93;;
11313;SDS011;5712;48.858;9.206;2024-01-07T10:54:57;4.67;;;2.97;;
11313;SDS011;5712;48.858;9.206;2024-01-07T10:57:37;6.97;;;4.07;;
11313;SDS011;5712;48.858;9.206;2024-01-07T11:00:09;6.33;;;3.57;;
11313;SDS011;5712;48.858;9.206;2024-01-07T11:02:46;5.67;;;3.63;;
11313;SDS011;5712;48.858;9.206;2024-01-07T11:05:19;5.93;;;3.80;;
11313;SDS011;5712;48.858;9.206;2024-01-07T11:07:55;6.03;;;3.83;;
11313;SDS011;5712;48.858;9.206;2024-01-07T11:10:31;4.83;;;3.63;;
11313;SDS011;5712;48.858;9.206;2024-01-07T11:13:04;5.80;;;4.03;;
11313;SDS011;5712;48.858;9.206;2024-01-07T11:18:17;5.33;;;3.70;;
11313;SDS011;5712;48.858;9.206;2024-01-07T11:20:43;6.00;;;4.17;;
11313;SDS011;5712;48.858;9.206;2024-01-07T11:23:27;6.13;;;4.63;;
11313;SDS011;5712;48.858;9.206;2024-01-07T11:25:58;6.43;;;4.50;;
11313;SDS011;5712;48.858;9.206;2024-01-07T11:28:45;5.87;;;4.03;;
11313;SDS011;5712;48.858;9.206;2024-01-07T11:31:12;6.37;;;4.07;;
11313;SDS011;5712;48.858;9.206;2024-01-07T11:33:41;5.80;;;3.77;;
11313;SDS011;5712;48.858;9.206;2024-01-07T11:36:10;5.80;;;3.90;;
11313;SDS011;5712;48.858;9.206;2024-01-07T11:38:37;5.87;;;4.30;;
11313;SDS011;5712;48.858;9.206;2024-01-07T11:41:04;6.07;;;4.13;;
11313;SDS011;5712;48.858;9.206;2024-01-07T11:43:32;4.90;;;3.53;;
11313;SDS011;5712;48.858;9.206;2024-01-07T11:46:00;6.17;;;4.10;;
11313;SDS011;5712;48.858;9.206;2024-01-07T11:48:27;6.70;;;4.30;;
11313;SDS011;5712;48.858;9.206;2024-01-07T11:50:53;7.57;;;4.50;;
11313;SDS011;5712;48.858;9.206;2024-01-07T11:53:20;5.13;;;4.10;;
11313;SDS011;5712;48.858;9.206;2024-01-07T11:55:47;5.27;;;4.03;;
11313;SDS011;5712;48.858;9.206;2024-01-07T11:58:14;6.67;;;4.17;;
11313;SDS011;5712;48.858;9.206;2024-01-07T12:00:40;4.97;;;3.83;;
11313;SDS011;5712;48.858;9.206;2024-01-07T12:03:08;4.87;;;4.07;;
11313;SDS011;5712;48.858;9.206;2024-01-07T12:05:35;5.53;;;3.97;;
11313;SDS011;5712;48.858;9.206;2024-01-07T12:08:02;7.40;;;4.67;;
11313;SDS011;5712;48.858;9.206;2024-01-07T12:10:28;6.23;;;4.47;;
11313;SDS011;5712;48.858;9.206;2024-01-07T12:12:55;7.00;;;4.50;;
11313;SDS011;5712;48.858;9.206;2024-01-07T12:15:22;6.53;;;4.77;;
11313;SDS011;5712;48.858;9.206;2024-01-07T12:17:55;7.43;;;5.20;;
11313;SDS011;5712;48.858;9.206;2024-01-07T12:20:24;7.07;;;4.60;;
11313;SDS011;5712;48.858;9.206;2024-01-07T12:22:51;7.03;;;4.80;;
11313;SDS011;5712;48.858;9.206;2024-01-07T12:25:21;6.73;;;4.77;;
11313;SDS011;5712;48.858;9.206;2024-01-07T12:27:49;7.97;;;5.10;;
11313;SDS011;5712;48.858;9.206;2024-01-07T12:30:17;7.53;;;5.00;;
11313;SDS011;5712;48.858;9.206;2024-01-07T12:32:45;6.57;;;4.80;;
11313;SDS011;5712;48.858;9.206;2024-01-07T12:35:11;7.43;;;4.70;;
11313;SDS011;5712;48.858;9.206;2024-01-07T12:37:39;7.87;;;5.67;;
11313;SDS011;5712;48.858;9.206;2024-01-07T12:40:06;8.83;;;5.60;;
11313;SDS011;5712;48.858;9.206;2024-01-07T12:42:35;9.20;;;5.43;;
11313;SDS011;5712;48.858;9.206;2024-01-07T12:45:02;8.77;;;5.50;;
11313;SDS011;5712;48.858;9.206;2024-01-07T12:47:29;8.30;;;5.40;;
11313;SDS011;5712;48.858;9.206;2024-01-07T12:49:56;8.53;;;5.47;;
11313;SDS011;5712;48.858;9.206;2024-01-07T12:52:23;8.93;;;5.53;;
11313;SDS011;5712;48.858;9.206;2024-01-07T12:54:51;9.57;;;6.17;;
11313;SDS011;5712;48.858;9.206;2024-01-07T12:57:21;8.97;;;6.20;;
11313;SDS011;5712;48.858;9.206;2024-01-07T12:59:47;8.57;;;5.23;;
11313;SDS011;5712;48.858;9.206;2024-01-07T13:02:14;9.10;;;6.13;;
11313;SDS011;5712;48.858;9.206;2024-01-07T13:04:40;9.53;;;6.03;;
11313;SDS011;5712;48.858;9.206;2024-01-07T13:07:07;8.43;;;5.87;;
11313;SDS011;5712;48.858;9.206;2024-01-07T13:09:33;9.10;;;5.67;;
11313;SDS011;5712;48.858;9.206;2024-01-07T13:12:01;9.37;;;6.27;;
11313;SDS011;5712;48.858;9.206;2024-01-07T13:14:29;8.97;;;5.90;;
11313;SDS011;5712;48.858;9.206;2024-01-07T13:16:58;8.27;;;5.53;;
11313;SDS011;5712;48.858;9.206;2024-01-07T13:19:41;9.83;;;6.47;;
11313;SDS011;5712;48.858;9.206;2024-01-07T13:22:22;8.77;;;5.67;;
11313;SDS011;5712;48.858;9.206;2024-01-07T13:24:49;6.97;;;5.17;;
11313;SDS011;5712;48.858;9.206;2024-01-07T13:27:17;7.63;;;5.47;;
11313;SDS011;5712;48.858;9.206;2024-01-07T13:29:44;7.80;;;5.20;;
11313;SDS011;5712;48.858;9.206;2024-01-07T13:32:12;9.97;;;5.57;;
11313;SDS011;5712;48.858;9.206;2024-01-07T13:34:40;8.47;;;5.93;;
11313;SDS011;5712;48.858;9.206;2024-01-07T13:37:06;11.60;;;6.07;;
11313;SDS011;5712;48.858;9.206;2024-01-07T13:39:33;8.07;;;5.57;;
11313;SDS011;5712;48.858;9.206;2024-01-07T13:41:59;9.13;;;5.73;;
11313;SDS011;5712;48.858;9.206;2024-01-07T13:44:27;8.50;;;5.77;;
11313;SDS011;5712;48.858;9.206;2024-01-07T13:46:53;8.90;;;6.03;;
11313;SDS011;5712;48.858;9.206;2024-01-07T13:49:20;10.93;;;6.30;;
11313;SDS011;5712;48.858;9.206;2024-01-07T13:51:46;9.57;;;6.70;;
11313;SDS011;5712;48.858;9.206;2024-01-07T13:54:13;10.30;;;6.23;;
11313;SDS011;5712;48.858;9.206;2024-01-07T13:56:39;10.53;;;6.90;;
11313;SDS011;5712;48.858;9.206;2024-01-07T13:59:07;9.13;;;6.33;;
11313;SDS011;5712;48.858;9.206;2024-01-07T14:01:36;10.20;;;7.10;;
11313;SDS011;5712;48.858;9.206;2024-01-07T14:04:02;10.97;;;6.80;;
11313;SDS011;5712;48.858;9.206;2024-01-07T14:06:29;11.20;;;6.50;;
11313;SDS011;5712;48.858;9.206;2024-01-07T14:08:56;11.45;;;7.30;;
11313;SDS011;5712;48.858;9.206;2024-01-07T14:11:23;10.20;;;6.57;;
11313;SDS011;5712;48.858;9.206;2024-01-07T14:13:51;10.10;;;6.57;;
11313;SDS011;5712;48.858;9.206;2024-01-07T14:16:18;11.73;;;6.80;;
11313;SDS011;5712;48.858;9.206;2024-01-07T14:18:46;9.70;;;6.07;;
11313;SDS011;5712;48.858;9.206;2024-01-07T14:21:12;10.60;;;6.80;;
11313;SDS011;5712;48.858;9.206;2024-01-07T14:23:39;10.13;;;6.67;;
11313;SDS011;5712;48.858;9.206;2024-01-07T14:26:05;10.13;;;6.40;;
11313;SDS011;5712;48.858;9.206;2024-01-07T14:28:32;9.40;;;6.20;;
11313;SDS011;5712;48.858;9.206;2024-01-07T14:30:58;10.17;;;6.17;;
11313;SDS011;5712;48.858;9.206;2024-01-07T14:33:25;12.43;;;7.00;;
11313;SDS011;5712;48.858;9.206;2024-01-07T14:35:52;9.73;;;6.30;;
11313;SDS011;5712;48.858;9.206;2024-01-07T14:38:19;10.37;;;6.23;;
11313;SDS011;5712;48.858;9.206;2024-01-07T14:40:46;9.43;;;6.57;;
11313;SDS011;5712;48.858;9.206;2024-01-07T14:43:12;10.07;;;6.13;;
11313;SDS011;5712;48.858;9.206;2024-01-07T14:45:39;10.83;;;6.17;;
11313;SDS011;5712;48.858;9.206;2024-01-07T14:48:06;8.93;;;5.83;;
11313;SDS011;5712;48.858;9.206;2024-01-07T14:50:33;9.70;;;6.10;;
11313;SDS011;5712;48.858;9.206;2024-01-07T14:53:01;10.53;;;5.60;;